Salix, Pennsylvania
Current Conditions -  °F | °C
As of 8:54 PM on Wednesday 17 Dec 2014 (Local Time) from KJST Reporting Station
Overcast Overcast  
Wind Chill: 18°   Ceiling: 1800
Heat Index: 27°   Visibility: 10mi
Dew Point: 19°   Wind: 9mph
Humidity: 72%   Direction: 270°W
Pressure: 29.98"   Gusts: 26mph
Location:  40.3°N, 78.77°W
Report Text: KJST 180154Z AUTO 27008G23KT 10SM OVC018 M03/M07 A2998 RMK AO2 SLP178 T10281072
Loading
Personal Weather Stations






























Interactive Weather Map New forecast layout! Learn more

10-Day Weather Forecast

Advertisements
Track Severe Weather on mobile